Time;durP1;ratioP1;P1;durP2;ratioP2;P2;SDS_P1;SDS_P2;PMS_P1;PMS_P2;Temp;Humidity;BMP_temperature;BMP_pressure;BME280_temperature;BME280_humidity;BME280_pressure;Samples;Min_cycle;Max_cycle;Signal;HPM_P1;HPM_P2
2022/10/19 00:00:10;;;;;;;;;;;23.10;99.90;;;;;;5094296;28;19909;-68
2022/10/19 00:02:36;;;;;;;;;;;23.20;99.90;;;;;;5094237;28;20430;-68
2022/10/19 00:05:03;;;;;;;;;;;23.20;99.90;;;;;;5094280;28;19961;-68
2022/10/19 00:07:30;;;;;;;;;;;23.40;99.90;;;;;;5094159;28;19947;-69
2022/10/19 00:09:56;;;;;;;;;;;23.50;99.90;;;;;;5093313;28;19908;-68
2022/10/19 00:12:23;;;;;;;;;;;23.50;99.90;;;;;;5093865;28;19916;-67
2022/10/19 00:14:50;;;;;;;;;;;23.60;99.90;;;;;;5093019;28;19928;-69
2022/10/19 00:17:16;;;;;;;;;;;23.70;99.90;;;;;;5092931;28;20383;-68
2022/10/19 00:19:43;;;;;;;;;;;23.70;99.90;;;;;;5074751;28;19919;-66
2022/10/19 00:22:09;;;;;;;;;;;23.90;99.70;;;;;;5093130;28;19952;-66
2022/10/19 00:24:36;;;;;;;;;;;24.00;99.30;;;;;;5092555;28;19999;-69
2022/10/19 00:27:03;;;;;;;;;;;24.20;99.40;;;;;;5093510;28;20389;-63
2022/10/19 00:29:29;;;;;;;;;;;24.40;98.90;;;;;;5093972;28;20010;-67
2022/10/19 00:31:56;;;;;;;;;;;24.40;99.90;;;;;;5093539;28;20006;-72
2022/10/19 00:34:22;;;;;;;;;;;24.00;99.90;;;;;;5093183;28;19919;-68
2022/10/19 00:36:49;;;;;;;;;;;23.50;99.90;;;;;;5093865;28;19953;-69
2022/10/19 00:39:17;;;;;;;;;;;23.20;98.70;;;;;;5093458;28;20404;-70
2022/10/19 00:41:44;;;;;;;;;;;23.40;97.30;;;;;;5093629;28;19916;-73
2022/10/19 00:44:11;;;;;;;;;;;23.50;97.20;;;;;;5093101;28;19912;-71
2022/10/19 00:46:42;;;;;;;;;;;23.80;99.10;;;;;;5093239;28;19966;-71
2022/10/19 00:49:12;;;;;;;;;;;24.10;98.80;;;;;;5093661;28;19909;-70
2022/10/19 00:51:41;;;;;;;;;;;24.30;97.60;;;;;;5092821;28;19912;-71
2022/10/19 00:54:09;;;;;;;;;;;24.50;96.70;;;;;;5075210;28;20422;-72
2022/10/19 00:56:38;;;;;;;;;;;24.70;96.30;;;;;;5074958;28;19912;-71
2022/10/19 00:59:05;;;;;;;;;;;24.90;94.20;;;;;;5092823;28;20365;-71
2022/10/19 01:01:32;;;;;;;;;;;25.10;94.10;;;;;;5092789;28;19957;-70
2022/10/19 01:03:59;;;;;;;;;;;25.30;94.10;;;;;;5074369;28;19920;-68
2022/10/19 01:06:26;;;;;;;;;;;25.40;94.20;;;;;;5093333;28;19952;-71
2022/10/19 01:08:53;;;;;;;;;;;25.50;94.10;;;;;;5092696;28;20340;-69
2022/10/19 01:11:37;;;;;;;;;;;25.60;93.10;;;;;;5092875;28;19995;-73
2022/10/19 01:14:13;;;;;;;;;;;25.90;94.30;;;;;;5092614;28;19920;-72
2022/10/19 01:16:43;;;;;;;;;;;25.90;93.20;;;;;;5092315;28;19912;-70
2022/10/19 01:19:27;;;;;;;;;;;25.90;91.60;;;;;;5092477;28;19969;-68
2022/10/19 01:22:06;;;;;;;;;;;25.80;94.40;;;;;;5092414;28;19959;-70
2022/10/19 01:24:44;;;;;;;;;;;25.90;96.00;;;;;;5092299;28;19943;-73
2022/10/19 01:27:12;;;;;;;;;;;25.80;96.40;;;;;;5090973;28;19967;-73
2022/10/19 01:29:54;;;;;;;;;;;25.80;96.90;;;;;;5093017;28;19908;-70
2022/10/19 01:32:26;;;;;;;;;;;25.80;97.00;;;;;;5092288;28;19980;-71
2022/10/19 01:35:02;;;;;;;;;;;25.70;97.50;;;;;;5092769;28;19912;-69
2022/10/19 01:37:32;;;;;;;;;;;25.80;98.90;;;;;;5092325;28;19958;-71
2022/10/19 01:40:03;;;;;;;;;;;26.00;99.00;;;;;;5092534;28;19908;-72
2022/10/19 01:42:43;;;;;;;;;;;26.20;99.00;;;;;;5092433;28;19939;-73
2022/10/19 01:45:19;;;;;;;;;;;26.30;98.80;;;;;;5092186;28;20339;-73
2022/10/19 01:47:45;;;;;;;;;;;26.40;98.90;;;;;;5092554;28;19919;-72
2022/10/19 01:50:31;;;;;;;;;;;26.50;99.30;;;;;;5092831;28;19915;-74
2022/10/19 01:52:58;;;;;;;;;;;26.70;99.00;;;;;;5092165;28;19962;-74
2022/10/19 01:55:25;;;;;;;;;;;26.80;99.90;;;;;;5092736;28;19920;-65
2022/10/19 01:57:56;;;;;;;;;;;26.60;99.90;;;;;;5091486;28;20410;-65
2022/10/19 02:00:23;;;;;;;;;;;25.90;99.90;;;;;;5092763;28;20006;-66
2022/10/19 02:02:50;;;;;;;;;;;25.40;99.90;;;;;;5081155;28;19926;-66
2022/10/19 02:05:19;;;;;;;;;;;25.00;99.90;;;;;;5091540;28;19987;-66
2022/10/19 02:07:48;;;;;;;;;;;24.70;99.90;;;;;;5091710;28;20380;-67
2022/10/19 02:10:14;;;;;;;;;;;24.70;99.90;;;;;;5089205;28;19948;-67
2022/10/19 02:12:42;;;;;;;;;;;25.00;99.90;;;;;;5087834;28;20331;-66
2022/10/19 02:15:15;;;;;;;;;;;25.50;99.90;;;;;;5085286;28;20292;-66
2022/10/19 02:17:45;;;;;;;;;;;26.10;99.90;;;;;;5081835;28;19908;-66
2022/10/19 02:20:12;;;;;;;;;;;26.70;98.20;;;;;;5092320;28;19908;-66
2022/10/19 02:22:39;;;;;;;;;;;27.00;95.30;;;;;;5089548;28;19917;-66
2022/10/19 02:25:06;;;;;;;;;;;27.30;94.00;;;;;;5091931;28;19919;-66
2022/10/19 02:27:33;;;;;;;;;;;27.40;94.00;;;;;;5092142;28;19915;-66
2022/10/19 02:30:00;;;;;;;;;;;27.60;93.60;;;;;;5091969;28;19961;-66
2022/10/19 02:32:27;;;;;;;;;;;27.90;92.70;;;;;;5093650;28;19909;-65
2022/10/19 02:34:54;;;;;;;;;;;28.20;91.10;;;;;;5095750;28;20004;-65
2022/10/19 02:37:21;;;;;;;;;;;28.20;91.30;;;;;;5095613;28;20344;-66
2022/10/19 02:39:47;;;;;;;;;;;28.20;90.80;;;;;;5095786;28;19995;-66
2022/10/19 02:42:23;;;;;;;;;;;28.60;90.60;;;;;;5094415;28;19920;-66
2022/10/19 02:44:57;;;;;;;;;;;28.90;90.30;;;;;;5089661;28;20347;-67
2022/10/19 02:47:26;;;;;;;;;;;29.20;90.00;;;;;;5089397;28;19931;-66
2022/10/19 02:49:53;;;;;;;;;;;29.50;88.50;;;;;;5095758;28;20382;-67
2022/10/19 02:52:20;;;;;;;;;;;30.00;86.10;;;;;;5095812;28;20002;-65
2022/10/19 02:54:46;;;;;;;;;;;30.60;90.00;;;;;;5095098;28;19912;-69
2022/10/19 02:57:20;;;;;;;;;;;31.20;88.10;;;;;;5095302;28;19924;-67
2022/10/19 02:59:47;;;;;;;;;;;29.90;90.60;;;;;;5095424;28;19915;-66
2022/10/19 03:02:14;;;;;;;;;;;29.50;91.40;;;;;;5095307;28;19942;-66
2022/10/19 03:04:41;;;;;;;;;;;29.40;91.00;;;;;;5095190;28;20284;-66
2022/10/19 03:07:09;;;;;;;;;;;29.80;89.50;;;;;;5095221;28;19947;-66
2022/10/19 03:09:36;;;;;;;;;;;30.30;86.50;;;;;;5095610;28;19947;-66
2022/10/19 03:12:02;;;;;;;;;;;31.20;84.60;;;;;;5095135;28;19908;-66
2022/10/19 03:14:29;;;;;;;;;;;31.60;81.40;;;;;;5094932;28;19920;-67
2022/10/19 03:16:55;;;;;;;;;;;31.20;83.00;;;;;;5095265;28;20419;-65
2022/10/19 03:19:22;;;;;;;;;;;31.20;83.10;;;;;;5076208;28;19912;-66
2022/10/19 03:21:49;;;;;;;;;;;30.90;83.60;;;;;;5094877;28;20014;-67
2022/10/19 03:24:16;;;;;;;;;;;30.60;84.50;;;;;;5095290;28;20392;-70
2022/10/19 03:26:42;;;;;;;;;;;30.40;86.20;;;;;;5095050;28;19908;-67
2022/10/19 03:29:09;;;;;;;;;;;30.90;85.40;;;;;;5094629;28;19916;-67
2022/10/19 03:31:36;;;;;;;;;;;31.00;85.00;;;;;;5094320;28;20368;-68
2022/10/19 03:34:02;;;;;;;;;;;30.90;85.10;;;;;;5094774;28;19908;-67
2022/10/19 03:36:30;;;;;;;;;;;30.80;83.40;;;;;;5095291;28;19908;-68
2022/10/19 03:38:58;;;;;;;;;;;30.60;85.00;;;;;;5076046;28;19913;-67
2022/10/19 03:41:26;;;;;;;;;;;30.60;84.20;;;;;;5094267;28;19923;-67
2022/10/19 03:43:53;;;;;;;;;;;30.50;83.60;;;;;;5094069;28;20000;-67
2022/10/19 03:46:20;;;;;;;;;;;30.40;83.40;;;;;;5094448;28;19947;-66
2022/10/19 03:48:47;;;;;;;;;;;30.20;83.30;;;;;;5094654;28;19914;-66
2022/10/19 03:51:14;;;;;;;;;;;29.80;84.00;;;;;;5094416;28;19909;-66
2022/10/19 03:53:41;;;;;;;;;;;29.90;85.60;;;;;;5094677;28;20388;-67
2022/10/19 03:56:11;;;;;;;;;;;29.60;86.20;;;;;;5094456;28;20486;-66
2022/10/19 03:58:38;;;;;;;;;;;29.50;85.20;;;;;;5094407;28;19930;-65
2022/10/19 04:01:09;;;;;;;;;;;29.70;85.30;;;;;;5093737;28;20007;-66
2022/10/19 04:03:36;;;;;;;;;;;29.80;84.20;;;;;;5093975;28;19912;-67
2022/10/19 04:06:12;;;;;;;;;;;29.60;84.50;;;;;;5094028;28;19905;-67
2022/10/19 04:08:39;;;;;;;;;;;29.40;85.80;;;;;;5094413;28;20431;-67
2022/10/19 04:11:07;;;;;;;;;;;29.40;86.70;;;;;;5094406;28;19908;-67
2022/10/19 04:13:34;;;;;;;;;;;29.40;87.70;;;;;;5094213;28;19974;-67
2022/10/19 04:16:01;;;;;;;;;;;29.40;89.20;;;;;;5094276;28;19941;-67
2022/10/19 04:18:28;;;;;;;;;;;29.40;89.40;;;;;;5093975;28;20340;-66
2022/10/19 04:20:58;;;;;;;;;;;29.40;90.50;;;;;;5093531;28;19920;-67
2022/10/19 04:23:29;;;;;;;;;;;29.40;90.40;;;;;;5092047;28;19920;-66
2022/10/19 04:26:02;;;;;;;;;;;29.00;91.20;;;;;;5091829;28;19920;-70
2022/10/19 04:28:29;;;;;;;;;;;29.10;91.30;;;;;;5082057;28;20408;-66
2022/10/19 04:30:55;;;;;;;;;;;29.20;91.50;;;;;;5082898;28;19955;-66
2022/10/19 04:33:22;;;;;;;;;;;30.30;90.20;;;;;;5083460;28;19912;-67
2022/10/19 04:35:49;;;;;;;;;;;30.90;88.10;;;;;;5083541;28;19999;-66
2022/10/19 04:38:15;;;;;;;;;;;30.90;87.90;;;;;;5082375;28;20328;-68
2022/10/19 04:40:42;;;;;;;;;;;30.50;88.50;;;;;;5085827;28;19912;-67
2022/10/19 04:43:08;;;;;;;;;;;30.20;88.50;;;;;;5081907;28;20007;-67
2022/10/19 04:45:35;;;;;;;;;;;30.00;89.50;;;;;;5082075;28;19913;-65
2022/10/19 04:48:02;;;;;;;;;;;29.50;90.00;;;;;;5081733;28;20340;-66
2022/10/19 04:50:28;;;;;;;;;;;28.90;91.20;;;;;;5092877;28;19918;-66
2022/10/19 04:52:55;;;;;;;;;;;28.60;91.30;;;;;;5092838;28;19908;-67
2022/10/19 04:55:22;;;;;;;;;;;28.30;91.60;;;;;;5091960;28;20345;-67
2022/10/19 04:57:48;;;;;;;;;;;28.30;91.80;;;;;;5089997;28;19908;-67
2022/10/19 05:00:15;;;;;;;;;;;28.00;91.80;;;;;;5092627;28;19934;-66
2022/10/19 05:02:43;;;;;;;;;;;27.70;92.40;;;;;;5089594;28;19960;-68
2022/10/19 05:05:10;;;;;;;;;;;27.50;92.70;;;;;;5088739;28;19916;-66
2022/10/19 05:07:36;;;;;;;;;;;27.30;93.20;;;;;;5091973;28;19911;-67
2022/10/19 05:10:03;;;;;;;;;;;26.90;93.90;;;;;;5092051;28;19912;-67
2022/10/19 05:12:30;;;;;;;;;;;26.70;94.20;;;;;;5085593;28;19931;-66
2022/10/19 05:14:57;;;;;;;;;;;26.60;94.90;;;;;;5091869;28;20002;-65
2022/10/19 05:17:23;;;;;;;;;;;26.40;95.20;;;;;;5092031;28;19915;-66
2022/10/19 05:19:50;;;;;;;;;;;26.20;95.00;;;;;;5092562;28;20287;-66
2022/10/19 05:22:16;;;;;;;;;;;26.10;95.10;;;;;;5091454;28;19927;-66
2022/10/19 05:24:43;;;;;;;;;;;26.10;95.70;;;;;;5092515;28;20329;-65
2022/10/19 05:27:09;;;;;;;;;;;25.90;96.20;;;;;;5092467;28;19915;-66
2022/10/19 05:29:36;;;;;;;;;;;25.90;96.60;;;;;;5092468;28;20249;-66
2022/10/19 05:32:03;;;;;;;;;;;25.80;97.10;;;;;;5092114;28;19915;-65
2022/10/19 05:34:29;;;;;;;;;;;25.70;97.30;;;;;;5091597;28;19912;-64
2022/10/19 05:36:56;;;;;;;;;;;25.50;98.10;;;;;;5092011;28;20035;-66
2022/10/19 05:39:23;;;;;;;;;;;25.40;98.30;;;;;;5092278;28;19951;-66
2022/10/19 05:41:50;;;;;;;;;;;25.30;98.50;;;;;;5091893;28;19916;-64
2022/10/19 05:44:20;;;;;;;;;;;25.00;99.30;;;;;;5091271;28;19912;-65
2022/10/19 05:46:48;;;;;;;;;;;24.70;99.40;;;;;;5092199;28;19908;-66
2022/10/19 05:49:15;;;;;;;;;;;24.60;99.40;;;;;;5091972;28;19908;-65
2022/10/19 05:51:42;;;;;;;;;;;24.40;99.90;;;;;;5073672;28;19914;-66
2022/10/19 05:54:10;;;;;;;;;;;24.30;99.90;;;;;;5091761;28;20356;-67
2022/10/19 05:56:36;;;;;;;;;;;24.30;99.90;;;;;;5092146;28;19999;-66
2022/10/19 05:59:04;;;;;;;;;;;24.30;99.90;;;;;;5092021;28;19956;-66
2022/10/19 06:01:31;;;;;;;;;;;24.10;99.90;;;;;;5091468;28;19912;-67
2022/10/19 06:03:58;;;;;;;;;;;24.20;99.90;;;;;;5091218;28;19919;-66
2022/10/19 06:06:25;;;;;;;;;;;24.10;99.90;;;;;;5091561;28;19994;-66
2022/10/19 06:08:56;;;;;;;;;;;24.10;99.90;;;;;;5096481;28;19912;-67
2022/10/19 06:11:30;;;;;;;;;;;24.10;99.90;;;;;;5096791;28;19908;-66
2022/10/19 06:13:58;;;;;;;;;;;24.10;99.90;;;;;;5088822;28;19965;-67
2022/10/19 06:16:25;;;;;;;;;;;24.10;99.90;;;;;;5085642;28;19916;-68
2022/10/19 06:18:53;;;;;;;;;;;24.30;99.90;;;;;;5083365;28;19960;-69
2022/10/19 06:21:21;;;;;;;;;;;24.40;99.90;;;;;;5082820;28;19920;-67
2022/10/19 06:23:55;;;;;;;;;;;24.60;99.90;;;;;;5089225;28;19908;-69
2022/10/19 06:26:22;;;;;;;;;;;24.70;99.90;;;;;;5084622;28;19923;-66
2022/10/19 06:28:49;;;;;;;;;;;25.00;99.90;;;;;;5092406;28;20017;-66
2022/10/19 06:31:15;;;;;;;;;;;25.00;99.90;;;;;;5093645;28;20420;-66
2022/10/19 06:33:43;;;;;;;;;;;25.00;99.90;;;;;;5091441;28;19952;-67
2022/10/19 06:36:10;;;;;;;;;;;24.90;99.90;;;;;;5084121;28;19911;-66
2022/10/19 06:38:36;;;;;;;;;;;24.80;99.90;;;;;;5093843;28;19916;-66
2022/10/19 06:41:03;;;;;;;;;;;24.90;99.90;;;;;;5093311;28;20322;-68
2022/10/19 06:43:30;;;;;;;;;;;24.70;99.90;;;;;;5090046;28;19912;-68
2022/10/19 06:45:57;;;;;;;;;;;24.60;99.90;;;;;;5082065;28;20504;-67
2022/10/19 06:48:24;;;;;;;;;;;24.60;99.90;;;;;;5081996;28;19908;-65
2022/10/19 06:51:00;;;;;;;;;;;24.40;99.90;;;;;;5083508;28;20292;-67
2022/10/19 06:53:28;;;;;;;;;;;24.30;99.90;;;;;;5083049;28;19957;-68
2022/10/19 06:55:58;;;;;;;;;;;24.10;99.90;;;;;;5081324;28;19917;-66
2022/10/19 06:58:25;;;;;;;;;;;24.00;99.90;;;;;;5081406;28;20023;-67
2022/10/19 07:00:58;;;;;;;;;;;24.00;99.90;;;;;;5086735;28;19919;-67
2022/10/19 07:03:25;;;;;;;;;;;24.00;99.90;;;;;;5086939;28;19928;-66
2022/10/19 07:05:56;;;;;;;;;;;24.00;99.90;;;;;;5084535;28;19919;-66
2022/10/19 07:08:23;;;;;;;;;;;23.90;99.90;;;;;;5084923;28;19990;-65
2022/10/19 07:10:51;;;;;;;;;;;23.80;99.90;;;;;;5093009;28;19912;-65
2022/10/19 07:13:18;;;;;;;;;;;23.60;99.90;;;;;;5090260;28;20383;-66
2022/10/19 07:15:45;;;;;;;;;;;23.50;99.90;;;;;;5093547;28;20360;-66
2022/10/19 07:18:12;;;;;;;;;;;23.40;99.90;;;;;;5092379;28;19958;-65
2022/10/19 07:20:39;;;;;;;;;;;23.30;99.90;;;;;;5093260;28;19912;-66
2022/10/19 07:23:06;;;;;;;;;;;23.20;99.90;;;;;;5094097;28;20364;-65
2022/10/19 07:25:33;;;;;;;;;;;23.10;99.90;;;;;;5094423;28;19914;-66
2022/10/19 07:28:00;;;;;;;;;;;23.00;99.90;;;;;;5094371;28;19952;-65
2022/10/19 07:30:26;;;;;;;;;;;22.80;99.90;;;;;;5094494;28;19912;-65
2022/10/19 07:32:53;;;;;;;;;;;22.80;99.90;;;;;;5093957;28;20011;-64
2022/10/19 07:35:20;;;;;;;;;;;22.60;99.90;;;;;;5093857;28;20376;-66
2022/10/19 07:37:46;;;;;;;;;;;22.50;99.90;;;;;;5094406;28;20002;-67
2022/10/19 07:40:13;;;;;;;;;;;22.40;99.90;;;;;;5094544;28;19962;-67
2022/10/19 07:42:39;;;;;;;;;;;22.40;99.90;;;;;;5094414;28;19974;-67
2022/10/19 07:45:06;;;;;;;;;;;22.20;99.90;;;;;;5093763;28;19916;-66
2022/10/19 07:47:33;;;;;;;;;;;22.20;99.90;;;;;;5094040;28;19931;-66
2022/10/19 07:50:00;;;;;;;;;;;22.10;99.90;;;;;;5076350;28;19908;-66
2022/10/19 07:52:26;;;;;;;;;;;22.00;99.90;;;;;;5094304;28;20348;-65
2022/10/19 07:54:54;;;;;;;;;;;22.00;99.90;;;;;;5093600;28;19916;-64
2022/10/19 07:57:21;;;;;;;;;;;22.00;99.90;;;;;;5094071;28;19912;-65
2022/10/19 07:59:48;;;;;;;;;;;21.90;99.90;;;;;;5093489;28;20062;-66
2022/10/19 08:02:15;;;;;;;;;;;21.80;99.90;;;;;;5093927;28;19916;-67
2022/10/19 08:04:42;;;;;;;;;;;21.80;99.90;;;;;;5075140;28;19914;-66
2022/10/19 08:07:09;;;;;;;;;;;21.70;99.90;;;;;;5093672;28;20433;-66
2022/10/19 08:09:36;;;;;;;;;;;21.60;99.90;;;;;;5093929;28;19912;-65
2022/10/19 08:12:03;;;;;;;;;;;21.60;99.90;;;;;;5093968;28;19915;-66
2022/10/19 08:14:30;;;;;;;;;;;21.50;99.90;;;;;;5092782;28;19946;-64
2022/10/19 08:16:59;;;;;;;;;;;21.50;99.90;;;;;;5074176;28;20096;-66
2022/10/19 08:19:26;;;;;;;;;;;21.40;99.90;;;;;;5093275;28;19908;-66
2022/10/19 08:21:52;;;;;;;;;;;21.40;99.90;;;;;;5093702;28;19916;-64
2022/10/19 08:24:19;;;;;;;;;;;21.40;99.90;;;;;;5093202;28;19935;-65
2022/10/19 08:26:49;;;;;;;;;;;21.30;99.90;;;;;;5093380;28;19912;-65
2022/10/19 08:29:18;;;;;;;;;;;21.30;99.90;;;;;;5093100;28;19908;-69
2022/10/19 08:31:45;;;;;;;;;;;21.20;99.90;;;;;;5093010;28;20257;-65
2022/10/19 08:34:12;;;;;;;;;;;21.10;99.90;;;;;;5093509;28;19915;-66
2022/10/19 08:36:39;;;;;;;;;;;21.00;99.90;;;;;;5093546;28;19915;-66
2022/10/19 08:39:07;;;;;;;;;;;21.00;99.90;;;;;;5092572;28;19908;-66
2022/10/19 08:41:39;;;;;;;;;;;20.90;99.90;;;;;;5093220;28;19982;-65
2022/10/19 08:44:12;;;;;;;;;;;20.90;99.90;;;;;;5093355;28;20010;-65
2022/10/19 08:46:54;;;;;;;;;;;20.80;99.90;;;;;;5092681;28;19908;-65
2022/10/19 08:49:22;;;;;;;;;;;20.80;99.90;;;;;;5092684;28;19908;-66
2022/10/19 08:51:52;;;;;;;;;;;20.80;99.90;;;;;;5092769;28;19915;-67
2022/10/19 08:54:19;;;;;;;;;;;20.80;99.90;;;;;;5093399;28;20288;-64
2022/10/19 08:57:04;;;;;;;;;;;20.80;99.90;;;;;;5090432;28;20288;-66
2022/10/19 08:59:56;;;;;;;;;;;20.80;99.90;;;;;;5092364;28;19915;-66
2022/10/19 09:02:32;;;;;;;;;;;20.80;99.90;;;;;;5054312;28;20000;-65
2022/10/19 09:05:17;;;;;;;;;;;20.80;99.90;;;;;;5092378;28;20077;-65
2022/10/19 09:07:46;;;;;;;;;;;20.80;99.90;;;;;;5092798;28;19908;-64
2022/10/19 09:10:13;;;;;;;;;;;20.80;99.90;;;;;;5091837;28;20599;-65
2022/10/19 09:12:40;;;;;;;;;;;20.80;99.90;;;;;;5092480;28;19959;-63
2022/10/19 09:15:11;;;;;;;;;;;20.80;99.90;;;;;;5092091;28;19930;-64
2022/10/19 09:17:37;;;;;;;;;;;20.90;99.90;;;;;;5092699;28;19919;-64
2022/10/19 09:20:15;;;;;;;;;;;20.90;99.90;;;;;;5092317;28;19916;-65
2022/10/19 09:22:42;;;;;;;;;;;20.90;99.90;;;;;;5092187;28;19916;-64
2022/10/19 09:25:14;;;;;;;;;;;20.80;99.90;;;;;;5091632;28;19943;-66
2022/10/19 09:27:43;;;;;;;;;;;20.80;99.90;;;;;;5074281;28;20372;-65
2022/10/19 09:30:15;;;;;;;;;;;20.70;99.90;;;;;;5091673;28;19955;-65
2022/10/19 09:32:42;;;;;;;;;;;20.80;99.90;;;;;;5091815;28;19908;-66
2022/10/19 09:35:44;;;;;;;;;;;20.70;99.90;;;;;;5091713;28;19915;-65
2022/10/19 09:38:13;;;;;;;;;;;20.70;99.90;;;;;;5049294;28;19924;-65
2022/10/19 09:40:40;;;;;;;;;;;20.70;99.90;;;;;;5084213;28;19953;-66
2022/10/19 09:43:20;;;;;;;;;;;20.60;99.90;;;;;;5091918;28;19920;-65
2022/10/19 09:45:52;;;;;;;;;;;20.60;99.90;;;;;;5091826;28;20426;-65
2022/10/19 09:48:25;;;;;;;;;;;20.60;99.90;;;;;;5091543;28;19908;-65
2022/10/19 09:50:55;;;;;;;;;;;20.60;99.90;;;;;;5091695;28;19908;-65
2022/10/19 09:53:22;;;;;;;;;;;20.50;99.90;;;;;;5087568;28;19978;-66
2022/10/19 09:55:52;;;;;;;;;;;20.60;99.90;;;;;;5089831;28;19908;-65
2022/10/19 09:58:19;;;;;;;;;;;20.50;99.90;;;;;;5091139;28;19908;-64
2022/10/19 10:00:49;;;;;;;;;;;20.50;99.90;;;;;;5092276;28;20401;-66
2022/10/19 10:03:24;;;;;;;;;;;20.50;99.90;;;;;;5092270;28;19912;-65
2022/10/19 10:05:52;;;;;;;;;;;20.50;99.90;;;;;;5092222;28;20284;-64
2022/10/19 10:08:20;;;;;;;;;;;20.40;99.90;;;;;;5091878;28;19908;-65
2022/10/19 10:11:03;;;;;;;;;;;20.50;99.90;;;;;;5091680;28;19923;-66
2022/10/19 10:13:30;;;;;;;;;;;20.40;99.90;;;;;;5091370;28;19917;-66
2022/10/19 10:15:59;;;;;;;;;;;20.40;99.90;;;;;;5087612;28;19920;-66
2022/10/19 10:18:27;;;;;;;;;;;20.40;99.90;;;;;;5090822;28;20017;-66
2022/10/19 10:20:56;;;;;;;;;;;20.40;99.90;;;;;;5092687;28;19935;-66
2022/10/19 10:23:25;;;;;;;;;;;20.40;99.90;;;;;;5092421;28;19916;-66
2022/10/19 10:25:54;;;;;;;;;;;20.30;99.90;;;;;;5091557;28;19910;-67
2022/10/19 10:28:22;;;;;;;;;;;20.30;99.90;;;;;;5092347;28;19970;-66
2022/10/19 10:30:52;;;;;;;;;;;20.30;99.90;;;;;;5092282;28;20391;-65
2022/10/19 10:33:26;;;;;;;;;;;20.30;99.90;;;;;;5091999;28;19912;-66
2022/10/19 10:36:00;;;;;;;;;;;20.30;99.90;;;;;;5091742;28;19908;-66
2022/10/19 10:38:30;;;;;;;;;;;20.40;99.90;;;;;;5092104;28;19931;-66
2022/10/19 10:40:59;;;;;;;;;;;20.40;99.90;;;;;;5092410;28;19915;-65
2022/10/19 10:43:31;;;;;;;;;;;20.40;99.90;;;;;;5091341;28;20392;-66
2022/10/19 10:46:07;;;;;;;;;;;20.40;99.90;;;;;;5091860;28;19908;-67
2022/10/19 10:48:37;;;;;;;;;;;20.40;99.90;;;;;;5092541;28;20270;-66
2022/10/19 10:51:07;;;;;;;;;;;20.50;99.90;;;;;;5091944;28;19931;-65
2022/10/19 10:53:44;;;;;;;;;;;20.50;99.90;;;;;;5093549;28;19909;-66
2022/10/19 10:56:28;;;;;;;;;;;20.50;99.90;;;;;;5095663;28;20419;-66
2022/10/19 10:58:57;;;;;;;;;;;20.50;99.90;;;;;;5095237;28;20322;-66
2022/10/19 11:01:27;;;;;;;;;;;20.50;99.90;;;;;;5095316;28;20379;-65
2022/10/19 11:04:04;;;;;;;;;;;20.50;99.90;;;;;;5095737;28;19951;-66
2022/10/19 11:06:32;;;;;;;;;;;20.50;99.90;;;;;;5095898;28;19959;-66
2022/10/19 11:09:05;;;;;;;;;;;20.40;99.90;;;;;;5095415;28;19954;-66
2022/10/19 11:11:36;;;;;;;;;;;20.40;99.90;;;;;;5095055;28;19908;-66
2022/10/19 11:14:21;;;;;;;;;;;20.40;99.90;;;;;;5095126;28;20364;-67
2022/10/19 11:16:49;;;;;;;;;;;20.40;99.90;;;;;;5095336;28;19942;-65
2022/10/19 11:19:22;;;;;;;;;;;20.40;99.90;;;;;;5095183;28;19909;-66
2022/10/19 11:22:04;;;;;;;;;;;20.40;99.90;;;;;;5094667;28;20003;-68
2022/10/19 11:24:46;;;;;;;;;;;20.40;99.90;;;;;;5094997;28;19912;-67
2022/10/19 11:27:15;;;;;;;;;;;20.40;99.90;;;;;;5095496;28;19913;-66
2022/10/19 11:29:48;;;;;;;;;;;20.40;99.90;;;;;;5095070;28;19915;-66
2022/10/19 11:32:32;;;;;;;;;;;20.40;99.90;;;;;;5094877;28;19953;-66
2022/10/19 11:34:58;;;;;;;;;;;20.40;99.90;;;;;;5094673;28;19908;-66
2022/10/19 11:37:35;;;;;;;;;;;20.40;99.90;;;;;;5094734;28;20379;-67
2022/10/19 11:40:18;;;;;;;;;;;20.50;99.90;;;;;;5094839;28;21001;-67
2022/10/19 11:43:16;;;;;;;;;;;20.50;99.90;;;;;;5094476;28;19923;-66
2022/10/19 11:45:49;;;;;;;;;;;20.50;99.90;;;;;;5049600;28;20007;-67
2022/10/19 11:48:38;;;;;;;;;;;20.50;99.90;;;;;;5094435;28;20388;-66
2022/10/19 11:51:19;;;;;;;;;;;20.50;99.90;;;;;;5094527;28;19908;-66
2022/10/19 11:53:52;;;;;;;;;;;20.50;99.90;;;;;;5094513;28;19908;-66
2022/10/19 11:56:28;;;;;;;;;;;20.50;99.90;;;;;;5094885;28;19908;-67
2022/10/19 11:59:33;;;;;;;;;;;20.50;99.90;;;;;;5094773;28;19916;-67
2022/10/19 12:02:02;;;;;;;;;;;20.40;99.90;;;;;;5032006;28;19913;-67
2022/10/19 12:04:40;;;;;;;;;;;20.30;99.90;;;;;;5031723;28;19909;-68
2022/10/19 12:07:27;;;;;;;;;;;20.30;99.90;;;;;;5068065;28;19912;-67
2022/10/19 12:09:54;;;;;;;;;;;20.30;99.90;;;;;;5062792;28;19912;-67
2022/10/19 12:12:20;;;;;;;;;;;20.20;99.90;;;;;;5094462;28;19915;-65
2022/10/19 12:14:49;;;;;;;;;;;20.20;99.90;;;;;;5094345;28;19920;-65
2022/10/19 12:17:22;;;;;;;;;;;20.10;99.90;;;;;;5094259;28;19908;-66
2022/10/19 12:19:51;;;;;;;;;;;20.10;99.90;;;;;;5094297;28;19908;-67
2022/10/19 12:22:20;;;;;;;;;;;20.10;99.90;;;;;;5094091;28;19923;-66
2022/10/19 12:24:47;;;;;;;;;;;20.00;99.90;;;;;;5094179;28;19919;-68
2022/10/19 12:27:15;;;;;;;;;;;20.00;99.90;;;;;;5093991;28;19908;-66
2022/10/19 12:29:44;;;;;;;;;;;20.00;99.90;;;;;;5093950;28;20284;-69
2022/10/19 12:32:13;;;;;;;;;;;20.00;99.90;;;;;;5094086;28;19917;-67
2022/10/19 12:35:03;;;;;;;;;;;20.00;99.90;;;;;;5075416;28;19908;-67
2022/10/19 12:37:50;;;;;;;;;;;19.90;99.90;;;;;;5094022;28;19908;-68
2022/10/19 12:40:17;;;;;;;;;;;20.00;99.90;;;;;;5093798;28;19912;-66
2022/10/19 12:42:50;;;;;;;;;;;19.90;99.90;;;;;;5093861;28;19920;-66
2022/10/19 12:45:26;;;;;;;;;;;19.90;99.90;;;;;;5093477;28;19928;-66
2022/10/19 12:48:09;;;;;;;;;;;19.90;99.90;;;;;;5093196;28;19915;-66
2022/10/19 12:50:48;;;;;;;;;;;19.90;99.90;;;;;;5093603;28;19999;-67
2022/10/19 12:53:26;;;;;;;;;;;19.90;99.90;;;;;;5093127;28;19951;-66
2022/10/19 12:56:05;;;;;;;;;;;19.90;99.90;;;;;;5093858;28;19929;-66
2022/10/19 12:58:34;;;;;;;;;;;19.90;99.90;;;;;;5093201;28;19908;-65
2022/10/19 13:01:02;;;;;;;;;;;19.90;99.90;;;;;;5093191;28;20283;-65
2022/10/19 13:03:37;;;;;;;;;;;19.90;99.90;;;;;;5093300;28;20005;-66
2022/10/19 13:06:16;;;;;;;;;;;19.90;99.90;;;;;;5093279;28;19908;-66
2022/10/19 13:09:03;;;;;;;;;;;19.90;99.90;;;;;;5093288;28;19954;-68
2022/10/19 13:11:29;;;;;;;;;;;19.90;99.90;;;;;;5092644;28;20003;-66
2022/10/19 13:13:56;;;;;;;;;;;19.90;99.90;;;;;;5092912;28;19920;-66
2022/10/19 13:16:29;;;;;;;;;;;20.00;99.90;;;;;;5092471;28;19912;-67
2022/10/19 13:18:58;;;;;;;;;;;19.90;99.90;;;;;;5093223;28;19950;-67
2022/10/19 13:21:43;;;;;;;;;;;20.00;99.90;;;;;;5093085;28;19938;-66
2022/10/19 13:24:20;;;;;;;;;;;20.00;99.90;;;;;;5092782;28;19923;-67
2022/10/19 13:26:46;;;;;;;;;;;20.00;99.90;;;;;;5092709;28;19918;-67
2022/10/19 13:29:26;;;;;;;;;;;20.00;99.90;;;;;;5092824;28;19912;-66
2022/10/19 13:31:52;;;;;;;;;;;20.00;99.90;;;;;;5092636;28;20383;-65
2022/10/19 13:34:19;;;;;;;;;;;20.00;99.90;;;;;;5092786;28;19915;-67
2022/10/19 13:37:02;;;;;;;;;;;20.10;99.90;;;;;;5093033;28;19947;-67
2022/10/19 13:39:29;;;;;;;;;;;20.00;99.90;;;;;;5092720;28;19908;-67
2022/10/19 13:41:56;;;;;;;;;;;20.10;99.90;;;;;;5092622;28;19912;-67
2022/10/19 13:44:24;;;;;;;;;;;20.00;99.90;;;;;;5092816;28;19961;-67
2022/10/19 13:46:53;;;;;;;;;;;20.00;99.90;;;;;;5093012;28;19908;-67
2022/10/19 13:49:28;;;;;;;;;;;20.00;99.90;;;;;;5092228;28;19912;-67
2022/10/19 13:52:13;;;;;;;;;;;20.10;99.90;;;;;;5092545;28;20003;-67
2022/10/19 13:54:48;;;;;;;;;;;20.00;99.90;;;;;;5092756;28;20021;-66
2022/10/19 13:57:18;;;;;;;;;;;20.10;99.90;;;;;;5092757;28;19908;-66
2022/10/19 13:59:44;;;;;;;;;;;20.10;99.90;;;;;;5092804;28;19908;-67
2022/10/19 14:02:26;;;;;;;;;;;20.10;99.90;;;;;;5092468;28;20372;-66
2022/10/19 14:05:11;;;;;;;;;;;20.00;99.90;;;;;;5092539;28;19912;-66
2022/10/19 14:07:45;;;;;;;;;;;20.00;99.90;;;;;;5092327;28;19987;-66
2022/10/19 14:10:22;;;;;;;;;;;20.00;99.90;;;;;;5092361;28;20353;-68
2022/10/19 14:12:49;;;;;;;;;;;20.00;99.90;;;;;;5092576;28;20007;-67
2022/10/19 14:15:20;;;;;;;;;;;19.90;99.90;;;;;;5092476;28;20340;-66
2022/10/19 14:17:47;;;;;;;;;;;19.90;99.90;;;;;;5092450;28;20442;-65
2022/10/19 14:20:34;;;;;;;;;;;19.90;99.90;;;;;;5092495;28;19909;-66
2022/10/19 14:23:20;;;;;;;;;;;19.90;99.90;;;;;;5092451;28;19916;-67
2022/10/19 14:25:51;;;;;;;;;;;19.90;99.90;;;;;;5092524;28;19919;-66
2022/10/19 14:28:18;;;;;;;;;;;19.90;99.90;;;;;;5093599;28;19981;-67
2022/10/19 14:30:53;;;;;;;;;;;19.90;99.90;;;;;;5096256;28;19951;-66
2022/10/19 14:33:19;;;;;;;;;;;19.90;99.90;;;;;;5096054;28;19908;-67